sensor_id;sensor_type;location;lat;lon;timestamp;P1;durP1;ratioP1;P2;durP2;ratioP2
18568;SDS011;14780;48.316;-1.050;2023-02-11T00:02:26;7.30;;;3.90;;
18568;SDS011;14780;48.316;-1.050;2023-02-11T00:05:12;7.40;;;4.18;;
18568;SDS011;14780;48.316;-1.050;2023-02-11T00:07:57;5.60;;;4.07;;
18568;SDS011;14780;48.316;-1.050;2023-02-11T00:10:42;6.35;;;4.07;;
18568;SDS011;14780;48.316;-1.050;2023-02-11T00:13:29;6.40;;;4.05;;
18568;SDS011;14780;48.316;-1.050;2023-02-11T00:16:18;5.32;;;4.05;;
18568;SDS011;14780;48.316;-1.050;2023-02-11T00:19:03;6.90;;;4.45;;
18568;SDS011;14780;48.316;-1.050;2023-02-11T00:21:49;7.60;;;4.32;;
18568;SDS011;14780;48.316;-1.050;2023-02-11T00:24:34;6.45;;;4.03;;
18568;SDS011;14780;48.316;-1.050;2023-02-11T00:27:19;6.15;;;3.60;;
18568;SDS011;14780;48.316;-1.050;2023-02-11T00:30:04;5.90;;;4.18;;
18568;SDS011;14780;48.316;-1.050;2023-02-11T00:32:49;7.38;;;4.88;;
18568;SDS011;14780;48.316;-1.050;2023-02-11T00:35:35;5.82;;;4.18;;
18568;SDS011;14780;48.316;-1.050;2023-02-11T00:38:21;5.95;;;4.10;;
18568;SDS011;14780;48.316;-1.050;2023-02-11T00:41:06;6.22;;;4.18;;
18568;SDS011;14780;48.316;-1.050;2023-02-11T00:43:51;6.65;;;4.10;;
18568;SDS011;14780;48.316;-1.050;2023-02-11T00:46:36;5.32;;;3.70;;
18568;SDS011;14780;48.316;-1.050;2023-02-11T00:49:21;5.38;;;3.55;;
18568;SDS011;14780;48.316;-1.050;2023-02-11T00:52:05;6.32;;;4.10;;
18568;SDS011;14780;48.316;-1.050;2023-02-11T00:54:50;6.60;;;4.47;;
18568;SDS011;14780;48.316;-1.050;2023-02-11T00:57:35;6.53;;;4.25;;
18568;SDS011;14780;48.316;-1.050;2023-02-11T01:00:19;5.95;;;4.30;;
18568;SDS011;14780;48.316;-1.050;2023-02-11T01:03:05;5.32;;;3.78;;
18568;SDS011;14780;48.316;-1.050;2023-02-11T01:05:50;5.30;;;3.90;;
18568;SDS011;14780;48.316;-1.050;2023-02-11T01:08:35;6.32;;;4.03;;
18568;SDS011;14780;48.316;-1.050;2023-02-11T01:11:20;5.57;;;3.80;;
18568;SDS011;14780;48.316;-1.050;2023-02-11T01:14:06;5.75;;;4.20;;
18568;SDS011;14780;48.316;-1.050;2023-02-11T01:16:50;5.05;;;3.80;;
18568;SDS011;14780;48.316;-1.050;2023-02-11T01:19:36;5.75;;;4.00;;
18568;SDS011;14780;48.316;-1.050;2023-02-11T01:22:21;6.25;;;4.13;;
18568;SDS011;14780;48.316;-1.050;2023-02-11T01:25:06;6.38;;;4.35;;
18568;SDS011;14780;48.316;-1.050;2023-02-11T01:27:51;5.95;;;3.90;;
18568;SDS011;14780;48.316;-1.050;2023-02-11T01:30:36;4.93;;;3.63;;
18568;SDS011;14780;48.316;-1.050;2023-02-11T01:33:21;5.60;;;3.83;;
18568;SDS011;14780;48.316;-1.050;2023-02-11T01:36:07;6.57;;;4.10;;
18568;SDS011;14780;48.316;-1.050;2023-02-11T01:38:53;5.43;;;3.88;;
18568;SDS011;14780;48.316;-1.050;2023-02-11T01:41:38;6.30;;;4.07;;
18568;SDS011;14780;48.316;-1.050;2023-02-11T01:44:24;5.78;;;3.78;;
18568;SDS011;14780;48.316;-1.050;2023-02-11T01:47:09;5.60;;;4.03;;
18568;SDS011;14780;48.316;-1.050;2023-02-11T01:49:56;5.50;;;3.88;;
18568;SDS011;14780;48.316;-1.050;2023-02-11T01:52:44;6.75;;;4.80;;
18568;SDS011;14780;48.316;-1.050;2023-02-11T01:55:30;5.97;;;4.00;;
18568;SDS011;14780;48.316;-1.050;2023-02-11T01:58:33;6.68;;;4.22;;
18568;SDS011;14780;48.316;-1.050;2023-02-11T02:01:24;5.55;;;3.88;;
18568;SDS011;14780;48.316;-1.050;2023-02-11T02:04:11;6.07;;;3.72;;
18568;SDS011;14780;48.316;-1.050;2023-02-11T02:07:11;5.60;;;4.03;;
18568;SDS011;14780;48.316;-1.050;2023-02-11T02:10:04;6.30;;;4.03;;
18568;SDS011;14780;48.316;-1.050;2023-02-11T02:15:40;5.10;;;3.88;;
18568;SDS011;14780;48.316;-1.050;2023-02-11T02:24:42;6.43;;;4.00;;
18568;SDS011;14780;48.316;-1.050;2023-02-11T02:31:09;5.65;;;3.75;;
18568;SDS011;14780;48.316;-1.050;2023-02-11T02:34:18;5.38;;;4.20;;
18568;SDS011;14780;48.316;-1.050;2023-02-11T02:43:25;5.72;;;4.40;;
18568;SDS011;14780;48.316;-1.050;2023-02-11T02:46:21;5.75;;;3.88;;
18568;SDS011;14780;48.316;-1.050;2023-02-11T02:49:15;5.43;;;4.18;;
18568;SDS011;14780;48.316;-1.050;2023-02-11T03:07:17;4.60;;;3.80;;
18568;SDS011;14780;48.316;-1.050;2023-02-11T03:10:24;5.40;;;3.78;;
18568;SDS011;14780;48.316;-1.050;2023-02-11T03:13:10;5.00;;;3.57;;
18568;SDS011;14780;48.316;-1.050;2023-02-11T03:15:56;4.70;;;3.65;;
18568;SDS011;14780;48.316;-1.050;2023-02-11T03:18:46;5.82;;;3.58;;
18568;SDS011;14780;48.316;-1.050;2023-02-11T03:21:36;5.32;;;3.90;;
18568;SDS011;14780;48.316;-1.050;2023-02-11T03:24:34;5.60;;;3.92;;
18568;SDS011;14780;48.316;-1.050;2023-02-11T03:27:25;4.57;;;3.65;;
18568;SDS011;14780;48.316;-1.050;2023-02-11T03:30:31;5.80;;;3.83;;
18568;SDS011;14780;48.316;-1.050;2023-02-11T03:33:24;5.53;;;3.72;;
18568;SDS011;14780;48.316;-1.050;2023-02-11T03:36:20;4.40;;;3.47;;
18568;SDS011;14780;48.316;-1.050;2023-02-11T03:39:23;5.13;;;3.53;;
18568;SDS011;14780;48.316;-1.050;2023-02-11T03:42:14;4.90;;;3.75;;
18568;SDS011;14780;48.316;-1.050;2023-02-11T03:45:10;6.00;;;3.78;;
18568;SDS011;14780;48.316;-1.050;2023-02-11T03:48:00;6.43;;;3.95;;
18568;SDS011;14780;48.316;-1.050;2023-02-11T03:50:48;5.05;;;3.67;;
18568;SDS011;14780;48.316;-1.050;2023-02-11T03:53:35;5.30;;;4.10;;
18568;SDS011;14780;48.316;-1.050;2023-02-11T03:56:24;5.40;;;3.70;;
18568;SDS011;14780;48.316;-1.050;2023-02-11T03:59:12;6.40;;;3.45;;
18568;SDS011;14780;48.316;-1.050;2023-02-11T04:01:57;5.90;;;3.90;;
18568;SDS011;14780;48.316;-1.050;2023-02-11T04:04:42;5.25;;;3.97;;
18568;SDS011;14780;48.316;-1.050;2023-02-11T04:07:27;5.80;;;3.85;;
18568;SDS011;14780;48.316;-1.050;2023-02-11T04:10:12;4.90;;;3.78;;
18568;SDS011;14780;48.316;-1.050;2023-02-11T04:12:57;5.80;;;3.90;;
18568;SDS011;14780;48.316;-1.050;2023-02-11T04:15:41;6.35;;;3.92;;
18568;SDS011;14780;48.316;-1.050;2023-02-11T04:18:26;5.03;;;3.78;;
18568;SDS011;14780;48.316;-1.050;2023-02-11T04:21:11;5.60;;;3.95;;
18568;SDS011;14780;48.316;-1.050;2023-02-11T04:23:55;5.50;;;4.15;;
18568;SDS011;14780;48.316;-1.050;2023-02-11T04:26:40;5.03;;;3.60;;
18568;SDS011;14780;48.316;-1.050;2023-02-11T04:29:25;4.65;;;3.50;;
18568;SDS011;14780;48.316;-1.050;2023-02-11T04:32:11;4.82;;;3.80;;
18568;SDS011;14780;48.316;-1.050;2023-02-11T04:34:56;5.60;;;3.97;;
18568;SDS011;14780;48.316;-1.050;2023-02-11T04:37:40;5.93;;;3.80;;
18568;SDS011;14780;48.316;-1.050;2023-02-11T04:40:25;4.82;;;3.60;;
18568;SDS011;14780;48.316;-1.050;2023-02-11T04:43:10;4.55;;;3.33;;
18568;SDS011;14780;48.316;-1.050;2023-02-11T04:45:55;4.57;;;3.85;;
18568;SDS011;14780;48.316;-1.050;2023-02-11T04:48:41;5.50;;;3.85;;
18568;SDS011;14780;48.316;-1.050;2023-02-11T04:51:25;5.50;;;3.78;;
18568;SDS011;14780;48.316;-1.050;2023-02-11T04:54:10;5.00;;;3.85;;
18568;SDS011;14780;48.316;-1.050;2023-02-11T04:56:56;5.22;;;3.65;;
18568;SDS011;14780;48.316;-1.050;2023-02-11T04:59:40;5.75;;;4.00;;
18568;SDS011;14780;48.316;-1.050;2023-02-11T05:02:25;4.18;;;3.53;;
18568;SDS011;14780;48.316;-1.050;2023-02-11T05:05:10;5.10;;;3.83;;
18568;SDS011;14780;48.316;-1.050;2023-02-11T05:07:54;4.78;;;3.70;;
18568;SDS011;14780;48.316;-1.050;2023-02-11T05:10:40;5.53;;;3.80;;
18568;SDS011;14780;48.316;-1.050;2023-02-11T05:13:30;5.47;;;4.13;;
18568;SDS011;14780;48.316;-1.050;2023-02-11T05:16:15;6.38;;;4.07;;
18568;SDS011;14780;48.316;-1.050;2023-02-11T05:19:00;5.55;;;3.78;;
18568;SDS011;14780;48.316;-1.050;2023-02-11T05:21:45;5.90;;;4.20;;
18568;SDS011;14780;48.316;-1.050;2023-02-11T05:24:30;6.07;;;4.13;;
18568;SDS011;14780;48.316;-1.050;2023-02-11T05:27:15;4.57;;;3.53;;
18568;SDS011;14780;48.316;-1.050;2023-02-11T05:29:59;5.75;;;4.10;;
18568;SDS011;14780;48.316;-1.050;2023-02-11T05:32:44;4.65;;;3.80;;
18568;SDS011;14780;48.316;-1.050;2023-02-11T05:35:28;5.45;;;3.67;;
18568;SDS011;14780;48.316;-1.050;2023-02-11T05:38:13;4.90;;;3.85;;
18568;SDS011;14780;48.316;-1.050;2023-02-11T05:40:58;5.45;;;4.15;;
18568;SDS011;14780;48.316;-1.050;2023-02-11T05:43:43;4.72;;;3.45;;
18568;SDS011;14780;48.316;-1.050;2023-02-11T05:46:30;4.63;;;3.63;;
18568;SDS011;14780;48.316;-1.050;2023-02-11T05:49:15;5.22;;;4.15;;
18568;SDS011;14780;48.316;-1.050;2023-02-11T05:52:00;4.80;;;3.80;;
18568;SDS011;14780;48.316;-1.050;2023-02-11T05:54:45;4.63;;;3.78;;
18568;SDS011;14780;48.316;-1.050;2023-02-11T05:57:30;4.97;;;3.50;;
18568;SDS011;14780;48.316;-1.050;2023-02-11T06:00:15;5.70;;;3.67;;
18568;SDS011;14780;48.316;-1.050;2023-02-11T06:03:00;5.25;;;3.60;;
18568;SDS011;14780;48.316;-1.050;2023-02-11T06:05:47;5.03;;;3.40;;
18568;SDS011;14780;48.316;-1.050;2023-02-11T06:08:31;4.20;;;3.50;;
18568;SDS011;14780;48.316;-1.050;2023-02-11T06:11:16;4.88;;;3.08;;
18568;SDS011;14780;48.316;-1.050;2023-02-11T06:14:01;4.38;;;3.42;;
18568;SDS011;14780;48.316;-1.050;2023-02-11T06:16:46;4.18;;;3.35;;
18568;SDS011;14780;48.316;-1.050;2023-02-11T06:19:31;4.38;;;3.40;;
18568;SDS011;14780;48.316;-1.050;2023-02-11T06:22:16;4.63;;;3.53;;
18568;SDS011;14780;48.316;-1.050;2023-02-11T06:25:00;4.88;;;3.60;;
18568;SDS011;14780;48.316;-1.050;2023-02-11T06:27:45;4.40;;;3.20;;
18568;SDS011;14780;48.316;-1.050;2023-02-11T06:30:30;7.15;;;3.53;;
18568;SDS011;14780;48.316;-1.050;2023-02-11T06:33:14;4.47;;;3.20;;
18568;SDS011;14780;48.316;-1.050;2023-02-11T06:35:59;4.45;;;3.58;;
18568;SDS011;14780;48.316;-1.050;2023-02-11T06:38:45;5.43;;;3.38;;
18568;SDS011;14780;48.316;-1.050;2023-02-11T06:41:31;4.55;;;3.50;;
18568;SDS011;14780;48.316;-1.050;2023-02-11T06:44:15;4.32;;;3.33;;
18568;SDS011;14780;48.316;-1.050;2023-02-11T06:47:00;4.47;;;3.10;;
18568;SDS011;14780;48.316;-1.050;2023-02-11T06:49:45;5.10;;;3.55;;
18568;SDS011;14780;48.316;-1.050;2023-02-11T06:52:30;4.38;;;3.42;;
18568;SDS011;14780;48.316;-1.050;2023-02-11T06:55:15;4.25;;;3.30;;
18568;SDS011;14780;48.316;-1.050;2023-02-11T06:58:00;4.38;;;3.30;;
18568;SDS011;14780;48.316;-1.050;2023-02-11T07:00:44;3.75;;;3.17;;
18568;SDS011;14780;48.316;-1.050;2023-02-11T07:03:29;4.28;;;3.28;;
18568;SDS011;14780;48.316;-1.050;2023-02-11T07:06:15;3.65;;;2.90;;
18568;SDS011;14780;48.316;-1.050;2023-02-11T07:09:02;4.22;;;3.13;;
18568;SDS011;14780;48.316;-1.050;2023-02-11T07:11:48;4.40;;;3.00;;
18568;SDS011;14780;48.316;-1.050;2023-02-11T07:14:32;4.28;;;3.53;;
18568;SDS011;14780;48.316;-1.050;2023-02-11T07:17:17;4.15;;;3.13;;
18568;SDS011;14780;48.316;-1.050;2023-02-11T07:20:02;4.60;;;3.38;;
18568;SDS011;14780;48.316;-1.050;2023-02-11T07:22:47;3.95;;;3.08;;
18568;SDS011;14780;48.316;-1.050;2023-02-11T07:25:32;3.92;;;3.00;;
18568;SDS011;14780;48.316;-1.050;2023-02-11T07:28:18;4.22;;;3.20;;
18568;SDS011;14780;48.316;-1.050;2023-02-11T07:33:53;4.28;;;3.10;;
18568;SDS011;14780;48.316;-1.050;2023-02-11T07:36:40;3.80;;;3.08;;
18568;SDS011;14780;48.316;-1.050;2023-02-11T07:39:26;4.13;;;2.80;;
18568;SDS011;14780;48.316;-1.050;2023-02-11T07:42:11;3.60;;;2.92;;
18568;SDS011;14780;48.316;-1.050;2023-02-11T07:44:56;3.95;;;3.00;;
18568;SDS011;14780;48.316;-1.050;2023-02-11T07:47:40;3.72;;;3.00;;
18568;SDS011;14780;48.316;-1.050;2023-02-11T07:50:25;7.07;;;2.97;;
18568;SDS011;14780;48.316;-1.050;2023-02-11T07:53:10;3.72;;;2.80;;
18568;SDS011;14780;48.316;-1.050;2023-02-11T07:55:55;6.13;;;2.92;;
18568;SDS011;14780;48.316;-1.050;2023-02-11T07:58:39;4.65;;;3.10;;
18568;SDS011;14780;48.316;-1.050;2023-02-11T08:01:25;4.75;;;2.90;;
18568;SDS011;14780;48.316;-1.050;2023-02-11T08:04:11;5.40;;;3.25;;
18568;SDS011;14780;48.316;-1.050;2023-02-11T08:06:56;6.10;;;3.10;;
18568;SDS011;14780;48.316;-1.050;2023-02-11T08:09:41;3.97;;;3.05;;
18568;SDS011;14780;48.316;-1.050;2023-02-11T08:12:27;5.20;;;3.10;;
18568;SDS011;14780;48.316;-1.050;2023-02-11T08:15:11;5.68;;;3.60;;
18568;SDS011;14780;48.316;-1.050;2023-02-11T08:17:56;4.53;;;2.90;;
18568;SDS011;14780;48.316;-1.050;2023-02-11T08:20:41;4.55;;;3.05;;
18568;SDS011;14780;48.316;-1.050;2023-02-11T08:23:26;4.00;;;2.90;;
18568;SDS011;14780;48.316;-1.050;2023-02-11T08:26:15;4.78;;;2.90;;
18568;SDS011;14780;48.316;-1.050;2023-02-11T08:29:05;9.10;;;3.30;;
18568;SDS011;14780;48.316;-1.050;2023-02-11T08:31:51;5.68;;;3.55;;
18568;SDS011;14780;48.316;-1.050;2023-02-11T08:34:36;6.05;;;3.10;;
18568;SDS011;14780;48.316;-1.050;2023-02-11T08:37:21;6.00;;;3.22;;
18568;SDS011;14780;48.316;-1.050;2023-02-11T08:40:05;6.45;;;3.17;;
18568;SDS011;14780;48.316;-1.050;2023-02-11T08:42:51;7.25;;;3.22;;
18568;SDS011;14780;48.316;-1.050;2023-02-11T08:45:36;7.47;;;3.13;;
18568;SDS011;14780;48.316;-1.050;2023-02-11T08:48:20;5.70;;;2.92;;
18568;SDS011;14780;48.316;-1.050;2023-02-11T08:51:06;5.63;;;3.10;;
18568;SDS011;14780;48.316;-1.050;2023-02-11T08:53:52;4.90;;;3.10;;
18568;SDS011;14780;48.316;-1.050;2023-02-11T08:56:37;5.60;;;3.10;;
18568;SDS011;14780;48.316;-1.050;2023-02-11T08:59:22;8.48;;;3.58;;
18568;SDS011;14780;48.316;-1.050;2023-02-11T09:02:10;4.50;;;2.83;;
18568;SDS011;14780;48.316;-1.050;2023-02-11T09:04:55;6.00;;;3.08;;
18568;SDS011;14780;48.316;-1.050;2023-02-11T09:07:40;7.88;;;3.28;;
18568;SDS011;14780;48.316;-1.050;2023-02-11T09:10:25;7.15;;;3.28;;
18568;SDS011;14780;48.316;-1.050;2023-02-11T09:13:09;6.43;;;2.90;;
18568;SDS011;14780;48.316;-1.050;2023-02-11T09:15:54;10.00;;;3.20;;
18568;SDS011;14780;48.316;-1.050;2023-02-11T09:18:40;7.03;;;2.83;;
18568;SDS011;14780;48.316;-1.050;2023-02-11T09:21:24;4.97;;;2.70;;
18568;SDS011;14780;48.316;-1.050;2023-02-11T09:24:10;5.05;;;2.60;;
18568;SDS011;14780;48.316;-1.050;2023-02-11T09:26:56;3.35;;;2.63;;
18568;SDS011;14780;48.316;-1.050;2023-02-11T09:29:40;4.25;;;2.80;;
18568;SDS011;14780;48.316;-1.050;2023-02-11T09:32:25;7.63;;;2.78;;
18568;SDS011;14780;48.316;-1.050;2023-02-11T09:35:09;6.47;;;2.75;;
18568;SDS011;14780;48.316;-1.050;2023-02-11T09:37:54;7.15;;;3.15;;
18568;SDS011;14780;48.316;-1.050;2023-02-11T09:40:42;6.10;;;2.53;;
18568;SDS011;14780;48.316;-1.050;2023-02-11T09:43:41;3.97;;;2.70;;
18568;SDS011;14780;48.316;-1.050;2023-02-11T09:46:34;2.90;;;2.28;;
18568;SDS011;14780;48.316;-1.050;2023-02-11T09:49:25;4.80;;;2.70;;
18568;SDS011;14780;48.316;-1.050;2023-02-11T09:55:38;5.57;;;2.97;;
18568;SDS011;14780;48.316;-1.050;2023-02-11T09:58:26;6.15;;;2.70;;
18568;SDS011;14780;48.316;-1.050;2023-02-11T10:16:14;4.50;;;2.92;;
18568;SDS011;14780;48.316;-1.050;2023-02-11T10:19:12;3.75;;;2.50;;
18568;SDS011;14780;48.316;-1.050;2023-02-11T10:25:38;4.28;;;2.80;;
18568;SDS011;14780;48.316;-1.050;2023-02-11T10:28:26;4.05;;;2.70;;
18568;SDS011;14780;48.316;-1.050;2023-02-11T10:31:15;4.13;;;2.60;;
18568;SDS011;14780;48.316;-1.050;2023-02-11T10:34:05;5.10;;;2.88;;
18568;SDS011;14780;48.316;-1.050;2023-02-11T10:36:52;4.55;;;2.67;;
18568;SDS011;14780;48.316;-1.050;2023-02-11T10:39:37;4.50;;;2.97;;
18568;SDS011;14780;48.316;-1.050;2023-02-11T10:42:23;5.10;;;2.47;;
18568;SDS011;14780;48.316;-1.050;2023-02-11T10:45:15;5.18;;;2.70;;
18568;SDS011;14780;48.316;-1.050;2023-02-11T10:51:34;6.78;;;2.80;;
18568;SDS011;14780;48.316;-1.050;2023-02-11T10:54:20;3.95;;;2.70;;
18568;SDS011;14780;48.316;-1.050;2023-02-11T10:57:11;6.90;;;2.42;;
18568;SDS011;14780;48.316;-1.050;2023-02-11T11:00:49;4.95;;;2.63;;
18568;SDS011;14780;48.316;-1.050;2023-02-11T11:03:22;3.72;;;2.30;;
18568;SDS011;14780;48.316;-1.050;2023-02-11T11:06:08;2.88;;;2.25;;
18568;SDS011;14780;48.316;-1.050;2023-02-11T11:08:53;5.13;;;2.58;;
18568;SDS011;14780;48.316;-1.050;2023-02-11T11:11:38;3.95;;;2.53;;
18568;SDS011;14780;48.316;-1.050;2023-02-11T11:14:35;5.28;;;2.65;;
18568;SDS011;14780;48.316;-1.050;2023-02-11T11:17:20;4.28;;;2.50;;
18568;SDS011;14780;48.316;-1.050;2023-02-11T11:23:15;4.00;;;2.30;;
18568;SDS011;14780;48.316;-1.050;2023-02-11T11:28:53;5.55;;;2.60;;
18568;SDS011;14780;48.316;-1.050;2023-02-11T11:31:55;3.65;;;2.25;;
18568;SDS011;14780;48.316;-1.050;2023-02-11T11:34:47;4.32;;;2.35;;
18568;SDS011;14780;48.316;-1.050;2023-02-11T11:37:35;3.10;;;2.40;;
18568;SDS011;14780;48.316;-1.050;2023-02-11T11:40:23;3.22;;;2.40;;
18568;SDS011;14780;48.316;-1.050;2023-02-11T11:46:03;3.33;;;2.10;;
18568;SDS011;14780;48.316;-1.050;2023-02-11T11:48:50;4.10;;;2.42;;
18568;SDS011;14780;48.316;-1.050;2023-02-11T11:51:40;3.38;;;2.40;;
18568;SDS011;14780;48.316;-1.050;2023-02-11T11:54:28;3.05;;;2.38;;
18568;SDS011;14780;48.316;-1.050;2023-02-11T11:57:17;6.45;;;2.60;;
18568;SDS011;14780;48.316;-1.050;2023-02-11T12:00:23;3.03;;;2.15;;
18568;SDS011;14780;48.316;-1.050;2023-02-11T12:21:31;3.13;;;2.30;;
18568;SDS011;14780;48.316;-1.050;2023-02-11T12:27:32;3.65;;;2.20;;
18568;SDS011;14780;48.316;-1.050;2023-02-11T12:36:37;6.60;;;2.30;;
18568;SDS011;14780;48.316;-1.050;2023-02-11T12:39:41;5.78;;;2.22;;
18568;SDS011;14780;48.316;-1.050;2023-02-11T12:46:21;10.52;;;2.53;;
18568;SDS011;14780;48.316;-1.050;2023-02-11T12:49:40;6.95;;;2.90;;
18568;SDS011;14780;48.316;-1.050;2023-02-11T12:55:26;5.28;;;2.40;;
18568;SDS011;14780;48.316;-1.050;2023-02-11T12:58:15;5.03;;;2.55;;
18568;SDS011;14780;48.316;-1.050;2023-02-11T13:01:05;3.72;;;2.10;;
18568;SDS011;14780;48.316;-1.050;2023-02-11T13:04:07;4.63;;;2.10;;
18568;SDS011;14780;48.316;-1.050;2023-02-11T13:07:11;5.22;;;2.40;;
18568;SDS011;14780;48.316;-1.050;2023-02-11T13:12:58;7.10;;;2.67;;
18568;SDS011;14780;48.316;-1.050;2023-02-11T13:16:02;3.97;;;2.33;;
18568;SDS011;14780;48.316;-1.050;2023-02-11T13:19:00;7.60;;;2.65;;
18568;SDS011;14780;48.316;-1.050;2023-02-11T13:24:56;5.32;;;2.30;;
18568;SDS011;14780;48.316;-1.050;2023-02-11T13:30:48;6.30;;;2.40;;
18568;SDS011;14780;48.316;-1.050;2023-02-11T13:33:44;4.97;;;1.80;;
18568;SDS011;14780;48.316;-1.050;2023-02-11T13:36:32;9.88;;;2.22;;
18568;SDS011;14780;48.316;-1.050;2023-02-11T13:39:18;6.85;;;2.00;;
18568;SDS011;14780;48.316;-1.050;2023-02-11T13:42:04;6.10;;;2.55;;
18568;SDS011;14780;48.316;-1.050;2023-02-11T13:44:58;3.38;;;1.98;;
18568;SDS011;14780;48.316;-1.050;2023-02-11T13:47:43;9.52;;;2.30;;
18568;SDS011;14780;48.316;-1.050;2023-02-11T13:50:28;4.07;;;2.35;;
18568;SDS011;14780;48.316;-1.050;2023-02-11T13:53:15;8.45;;;2.40;;
18568;SDS011;14780;48.316;-1.050;2023-02-11T13:56:05;5.47;;;2.20;;
18568;SDS011;14780;48.316;-1.050;2023-02-11T13:58:54;5.18;;;2.70;;
18568;SDS011;14780;48.316;-1.050;2023-02-11T14:19:55;5.13;;;2.28;;
18568;SDS011;14780;48.316;-1.050;2023-02-11T14:22:46;6.82;;;2.30;;
18568;SDS011;14780;48.316;-1.050;2023-02-11T14:25:33;4.15;;;2.33;;
18568;SDS011;14780;48.316;-1.050;2023-02-11T14:28:23;4.10;;;2.40;;
18568;SDS011;14780;48.316;-1.050;2023-02-11T14:31:25;4.15;;;2.28;;
18568;SDS011;14780;48.316;-1.050;2023-02-11T14:37:59;4.97;;;2.35;;
18568;SDS011;14780;48.316;-1.050;2023-02-11T14:43:50;3.05;;;2.05;;
18568;SDS011;14780;48.316;-1.050;2023-02-11T14:46:51;5.13;;;2.13;;
18568;SDS011;14780;48.316;-1.050;2023-02-11T14:49:38;5.57;;;2.10;;
18568;SDS011;14780;48.316;-1.050;2023-02-11T14:52:27;6.07;;;2.15;;
18568;SDS011;14780;48.316;-1.050;2023-02-11T14:58:24;8.77;;;2.20;;
18568;SDS011;14780;48.316;-1.050;2023-02-11T15:01:32;3.47;;;2.20;;
18568;SDS011;14780;48.316;-1.050;2023-02-11T15:04:24;3.28;;;2.00;;
18568;SDS011;14780;48.316;-1.050;2023-02-11T15:07:10;3.97;;;2.10;;
18568;SDS011;14780;48.316;-1.050;2023-02-11T15:09:58;4.95;;;2.60;;
18568;SDS011;14780;48.316;-1.050;2023-02-11T15:12:44;4.60;;;2.20;;
18568;SDS011;14780;48.316;-1.050;2023-02-11T15:15:32;3.72;;;2.10;;
18568;SDS011;14780;48.316;-1.050;2023-02-11T15:18:20;2.67;;;1.88;;
18568;SDS011;14780;48.316;-1.050;2023-02-11T15:21:08;3.45;;;1.95;;
18568;SDS011;14780;48.316;-1.050;2023-02-11T15:23:58;3.83;;;1.85;;
18568;SDS011;14780;48.316;-1.050;2023-02-11T15:26:43;3.67;;;2.13;;
18568;SDS011;14780;48.316;-1.050;2023-02-11T15:29:34;3.55;;;1.95;;
18568;SDS011;14780;48.316;-1.050;2023-02-11T15:32:22;2.53;;;1.80;;
18568;SDS011;14780;48.316;-1.050;2023-02-11T15:35:09;2.83;;;1.63;;
18568;SDS011;14780;48.316;-1.050;2023-02-11T15:37:56;4.00;;;1.85;;
18568;SDS011;14780;48.316;-1.050;2023-02-11T15:40:50;4.63;;;2.10;;
18568;SDS011;14780;48.316;-1.050;2023-02-11T15:46:29;2.42;;;1.30;;
18568;SDS011;14780;48.316;-1.050;2023-02-11T15:49:20;3.90;;;1.88;;
18568;SDS011;14780;48.316;-1.050;2023-02-11T15:52:06;3.08;;;1.77;;
18568;SDS011;14780;48.316;-1.050;2023-02-11T15:54:51;5.78;;;2.03;;
18568;SDS011;14780;48.316;-1.050;2023-02-11T15:57:41;2.67;;;1.73;;
18568;SDS011;14780;48.316;-1.050;2023-02-11T16:00:33;2.65;;;1.77;;
18568;SDS011;14780;48.316;-1.050;2023-02-11T16:03:24;1.75;;;1.45;;
18568;SDS011;14780;48.316;-1.050;2023-02-11T16:06:16;3.63;;;1.83;;
18568;SDS011;14780;48.316;-1.050;2023-02-11T16:11:57;2.90;;;1.70;;
18568;SDS011;14780;48.316;-1.050;2023-02-11T16:14:44;3.30;;;2.05;;
18568;SDS011;14780;48.316;-1.050;2023-02-11T16:17:29;2.25;;;1.50;;
18568;SDS011;14780;48.316;-1.050;2023-02-11T16:20:16;2.25;;;1.60;;
18568;SDS011;14780;48.316;-1.050;2023-02-11T16:23:02;2.45;;;1.60;;
18568;SDS011;14780;48.316;-1.050;2023-02-11T16:25:50;2.42;;;1.67;;
18568;SDS011;14780;48.316;-1.050;2023-02-11T16:28:41;2.10;;;1.58;;
18568;SDS011;14780;48.316;-1.050;2023-02-11T16:31:31;3.25;;;1.92;;
18568;SDS011;14780;48.316;-1.050;2023-02-11T16:34:24;3.35;;;1.60;;
18568;SDS011;14780;48.316;-1.050;2023-02-11T16:37:09;2.17;;;1.58;;
18568;SDS011;14780;48.316;-1.050;2023-02-11T16:39:55;3.08;;;1.60;;
18568;SDS011;14780;48.316;-1.050;2023-02-11T16:42:40;5.55;;;1.80;;
18568;SDS011;14780;48.316;-1.050;2023-02-11T16:45:25;2.00;;;1.52;;
18568;SDS011;14780;48.316;-1.050;2023-02-11T16:48:11;3.53;;;1.77;;
18568;SDS011;14780;48.316;-1.050;2023-02-11T16:51:01;4.90;;;1.80;;
18568;SDS011;14780;48.316;-1.050;2023-02-11T16:53:46;4.38;;;1.42;;
18568;SDS011;14780;48.316;-1.050;2023-02-11T16:56:31;3.15;;;1.65;;
18568;SDS011;14780;48.316;-1.050;2023-02-11T16:59:15;4.97;;;1.50;;
18568;SDS011;14780;48.316;-1.050;2023-02-11T17:02:00;3.10;;;1.70;;
18568;SDS011;14780;48.316;-1.050;2023-02-11T17:04:44;5.82;;;1.67;;
18568;SDS011;14780;48.316;-1.050;2023-02-11T17:07:30;3.13;;;1.75;;
18568;SDS011;14780;48.316;-1.050;2023-02-11T17:10:16;3.05;;;1.90;;
18568;SDS011;14780;48.316;-1.050;2023-02-11T17:13:02;2.47;;;1.55;;
18568;SDS011;14780;48.316;-1.050;2023-02-11T17:15:48;5.80;;;1.60;;
18568;SDS011;14780;48.316;-1.050;2023-02-11T17:18:33;3.85;;;1.80;;
18568;SDS011;14780;48.316;-1.050;2023-02-11T17:21:18;3.47;;;1.95;;
18568;SDS011;14780;48.316;-1.050;2023-02-11T17:24:03;2.47;;;1.73;;
18568;SDS011;14780;48.316;-1.050;2023-02-11T17:26:48;3.63;;;2.35;;
18568;SDS011;14780;48.316;-1.050;2023-02-11T17:29:33;3.63;;;1.92;;
18568;SDS011;14780;48.316;-1.050;2023-02-11T17:32:19;4.03;;;2.78;;
18568;SDS011;14780;48.316;-1.050;2023-02-11T17:35:03;7.97;;;3.00;;
18568;SDS011;14780;48.316;-1.050;2023-02-11T17:37:49;5.70;;;3.42;;
18568;SDS011;14780;48.316;-1.050;2023-02-11T17:40:34;7.35;;;3.40;;
18568;SDS011;14780;48.316;-1.050;2023-02-11T17:43:19;7.50;;;4.05;;
18568;SDS011;14780;48.316;-1.050;2023-02-11T17:46:04;8.77;;;4.07;;
18568;SDS011;14780;48.316;-1.050;2023-02-11T17:48:50;8.43;;;4.15;;
18568;SDS011;14780;48.316;-1.050;2023-02-11T17:51:36;9.43;;;4.25;;
18568;SDS011;14780;48.316;-1.050;2023-02-11T17:54:22;9.65;;;4.53;;
18568;SDS011;14780;48.316;-1.050;2023-02-11T17:57:08;8.90;;;3.83;;
18568;SDS011;14780;48.316;-1.050;2023-02-11T17:59:55;8.00;;;3.92;;
18568;SDS011;14780;48.316;-1.050;2023-02-11T18:02:39;8.00;;;3.92;;
18568;SDS011;14780;48.316;-1.050;2023-02-11T18:05:24;6.20;;;3.90;;
18568;SDS011;14780;48.316;-1.050;2023-02-11T18:08:09;7.93;;;4.57;;
18568;SDS011;14780;48.316;-1.050;2023-02-11T18:10:54;6.63;;;4.32;;
18568;SDS011;14780;48.316;-1.050;2023-02-11T18:13:39;7.30;;;4.10;;
18568;SDS011;14780;48.316;-1.050;2023-02-11T18:16:24;9.02;;;5.55;;
18568;SDS011;14780;48.316;-1.050;2023-02-11T18:19:11;9.18;;;5.32;;
18568;SDS011;14780;48.316;-1.050;2023-02-11T18:21:56;8.77;;;5.57;;
18568;SDS011;14780;48.316;-1.050;2023-02-11T18:24:41;9.15;;;5.55;;
18568;SDS011;14780;48.316;-1.050;2023-02-11T18:27:26;9.00;;;5.78;;
18568;SDS011;14780;48.316;-1.050;2023-02-11T18:30:16;8.98;;;5.57;;
18568;SDS011;14780;48.316;-1.050;2023-02-11T18:33:02;11.20;;;5.57;;
18568;SDS011;14780;48.316;-1.050;2023-02-11T18:35:51;10.85;;;6.00;;
18568;SDS011;14780;48.316;-1.050;2023-02-11T18:38:36;8.55;;;5.57;;
18568;SDS011;14780;48.316;-1.050;2023-02-11T18:41:21;8.50;;;5.55;;
18568;SDS011;14780;48.316;-1.050;2023-02-11T18:44:06;10.20;;;5.65;;
18568;SDS011;14780;48.316;-1.050;2023-02-11T18:46:52;9.38;;;5.30;;
18568;SDS011;14780;48.316;-1.050;2023-02-11T18:49:38;8.77;;;5.43;;
18568;SDS011;14780;48.316;-1.050;2023-02-11T18:52:22;9.35;;;5.70;;
18568;SDS011;14780;48.316;-1.050;2023-02-11T18:55:07;7.80;;;5.28;;
18568;SDS011;14780;48.316;-1.050;2023-02-11T18:57:52;10.68;;;5.90;;
18568;SDS011;14780;48.316;-1.050;2023-02-11T19:00:39;9.52;;;5.90;;
18568;SDS011;14780;48.316;-1.050;2023-02-11T19:03:26;10.32;;;5.70;;